createdAt,value
2022-12-28T00:01:48.291Z,100743.38
2022-12-28T00:04:18.088Z,100729.59
2022-12-28T00:06:50.822Z,100732.78
2022-12-28T00:09:17.617Z,100722.25
2022-12-28T00:11:44.438Z,100714.22
2022-12-28T00:14:11.170Z,100707.41
2022-12-28T00:16:48.045Z,100706.22
2022-12-28T00:19:17.549Z,100697.22
2022-12-28T00:21:48.886Z,100696.38
2022-12-28T00:24:23.640Z,100680.22
2022-12-28T00:26:53.433Z,100676.09
2022-12-28T00:29:20.469Z,100681.44
2022-12-28T00:31:53.381Z,100670.63
2022-12-28T00:34:20.500Z,100665.63
2022-12-28T00:37:08.349Z,100646.31
2022-12-28T00:39:40.791Z,100661.25
2022-12-28T00:42:07.460Z,100647.31
2022-12-28T00:44:37.192Z,100640.16
2022-12-28T00:47:03.813Z,100641.88
2022-12-28T00:49:43.010Z,100639.22
2022-12-28T00:52:09.724Z,100632.88
2022-12-28T00:54:36.416Z,100617.22
2022-12-28T00:57:03.102Z,100632.28
2022-12-28T00:59:29.788Z,100620.13
2022-12-28T01:01:56.712Z,100612.34
2022-12-28T01:04:23.601Z,100603.69
2022-12-28T01:06:50.542Z,100596.44
2022-12-28T01:09:17.206Z,100592.22
2022-12-28T01:11:43.860Z,100583.03
2022-12-28T01:14:10.575Z,100591.03
2022-12-28T01:16:37.641Z,100581.69
2022-12-28T01:19:08.271Z,100576.25
2022-12-28T01:21:59.442Z,100582.31
2022-12-28T01:24:26.273Z,100565.56
2022-12-28T01:26:53.158Z,100560.59
2022-12-28T01:29:19.845Z,100555.38
2022-12-28T01:31:49.518Z,100545.41
2022-12-28T01:34:18.962Z,100548.34
2022-12-28T01:36:52.822Z,100539.44
2022-12-28T01:39:19.599Z,100532.16
2022-12-28T01:41:49.077Z,100528.66
2022-12-28T01:44:15.601Z,100529.63
2022-12-28T01:47:00.795Z,100520.75
2022-12-28T01:49:38.017Z,100518.59
2022-12-28T01:52:12.338Z,100513.00
2022-12-28T01:54:59.187Z,100518.00
2022-12-28T01:57:37.625Z,100510.09
2022-12-28T02:00:14.551Z,100513.75
2022-12-28T02:02:54.393Z,100507.19
2022-12-28T02:05:33.512Z,100508.16
2022-12-28T02:08:13.459Z,100500.97
2022-12-28T02:10:50.989Z,100502.69
2022-12-28T02:13:21.067Z,100495.03
2022-12-28T02:15:50.118Z,100487.38
2022-12-28T02:18:21.652Z,100495.63
2022-12-28T02:21:09.885Z,100492.84
2022-12-28T02:24:32.902Z,100479.94
2022-12-28T02:27:40.050Z,100477.03
2022-12-28T02:30:13.054Z,100470.34
2022-12-28T02:33:00.211Z,100454.81
2022-12-28T02:35:56.589Z,100453.34
2022-12-28T02:39:15.408Z,100439.59
2022-12-28T02:41:49.600Z,100438.13
2022-12-28T02:44:37.988Z,100422.72
2022-12-28T02:47:28.217Z,100416.75
2022-12-28T02:50:06.906Z,100417.00
2022-12-28T02:53:21.976Z,100422.34
2022-12-28T02:56:30.229Z,100412.13
2022-12-28T02:59:41.828Z,100411.50
2022-12-28T03:03:30.229Z,100402.75
2022-12-28T03:06:51.107Z,100395.84
2022-12-28T03:09:38.533Z,100386.97
2022-12-28T03:12:51.174Z,100375.94
2022-12-28T03:15:29.797Z,100376.28
2022-12-28T03:18:40.839Z,100361.00
2022-12-28T03:21:30.177Z,100363.69
2022-12-28T03:24:17.627Z,100351.44
2022-12-28T03:27:18.493Z,100351.28
2022-12-28T03:30:23.807Z,100328.50
2022-12-28T03:32:54.372Z,100337.34
2022-12-28T03:35:37.507Z,100323.28
2022-12-28T03:38:05.373Z,100307.38
2022-12-28T03:40:51.339Z,100310.88
2022-12-28T03:43:41.957Z,100308.38
2022-12-28T03:46:29.496Z,100288.72
2022-12-28T03:49:00.581Z,100278.88
2022-12-28T03:51:36.782Z,100271.38
2022-12-28T03:54:06.331Z,100262.63
2022-12-28T03:56:33.166Z,100265.66
2022-12-28T03:59:07.437Z,100263.72
2022-12-28T04:01:37.146Z,100253.28
2022-12-28T04:04:04.011Z,100251.50
2022-12-28T04:06:30.693Z,100239.94
2022-12-28T04:08:57.408Z,100241.53
2022-12-28T04:11:33.031Z,100222.38
2022-12-28T04:14:01.261Z,100231.00
2022-12-28T04:16:31.778Z,100211.34
2022-12-28T04:18:58.483Z,100219.13
2022-12-28T04:21:25.223Z,100223.47
2022-12-28T04:23:53.068Z,100222.75
2022-12-28T04:26:19.906Z,100209.19
2022-12-28T04:28:53.256Z,100189.91
2022-12-28T04:31:20.360Z,100192.69
2022-12-28T04:33:49.523Z,100193.66
2022-12-28T04:36:17.431Z,100174.25
2022-12-28T04:38:44.327Z,100174.25
2022-12-28T04:41:12.007Z,100159.09
2022-12-28T04:43:40.254Z,100150.38
2022-12-28T04:46:15.731Z,100159.22
2022-12-28T04:48:45.095Z,100151.72
2022-12-28T04:51:29.103Z,100156.06
2022-12-28T04:53:58.050Z,100150.38
2022-12-28T04:56:28.708Z,100143.34
2022-12-28T04:59:00.867Z,100141.53
2022-12-28T05:01:28.420Z,100148.31
2022-12-28T05:03:59.172Z,100143.00
2022-12-28T05:06:30.983Z,100117.63
2022-12-28T05:09:01.090Z,100120.66
2022-12-28T05:11:29.988Z,100107.56
2022-12-28T05:13:57.134Z,100098.47
2022-12-28T05:16:28.644Z,100103.19
2022-12-28T05:18:57.670Z,100106.00
2022-12-28T05:21:28.291Z,100097.16
2022-12-28T05:23:56.779Z,100092.53
2022-12-28T05:26:29.515Z,100091.31
2022-12-28T05:28:59.007Z,100069.72
2022-12-28T06:15:03.034Z,99993.63
2022-12-28T06:28:19.132Z,99975.41
2022-12-28T06:39:17.484Z,99963.97
2022-12-28T06:55:18.933Z,99958.44
2022-12-28T07:08:36.589Z,99946.13
2022-12-28T07:11:29.240Z,99933.59
2022-12-28T07:13:56.778Z,99920.13
2022-12-28T07:59:57.083Z,99907.56
2022-12-28T08:07:50.072Z,99907.72
2022-12-28T08:43:02.968Z,99875.56
2022-12-28T08:53:43.112Z,99875.31
2022-12-28T09:09:45.494Z,99854.78
2022-12-28T10:05:29.295Z,99861.56
2022-12-28T10:13:54.553Z,99855.19
2022-12-28T10:16:27.802Z,99854.63
2022-12-28T10:18:56.075Z,99862.25
2022-12-28T10:21:33.364Z,99865.63
2022-12-28T10:24:32.404Z,99869.13
2022-12-28T10:27:05.490Z,99853.19
2022-12-28T10:29:36.582Z,99840.66
2022-12-28T10:32:14.541Z,99861.34
2022-12-28T10:35:02.163Z,99866.28
2022-12-28T10:37:44.386Z,99854.25
2022-12-28T10:40:30.775Z,99851.97
2022-12-28T10:43:01.208Z,99854.22
2022-12-28T10:45:47.468Z,99861.97
2022-12-28T10:48:38.470Z,99857.97
2022-12-28T10:51:18.322Z,99847.94
2022-12-28T10:53:49.359Z,99851.50
2022-12-28T10:56:43.940Z,99858.41
2022-12-28T10:59:12.937Z,99844.16
2022-12-28T11:01:43.393Z,99854.72
2022-12-28T11:04:24.653Z,99843.97
2022-12-28T11:07:02.491Z,99841.53
2022-12-28T11:09:39.601Z,99847.75
2022-12-28T11:12:29.070Z,99846.31
2022-12-28T11:14:58.311Z,99846.16
2022-12-28T11:17:37.653Z,99842.47
2022-12-28T11:20:22.805Z,99844.72
2022-12-28T11:22:49.592Z,99844.41
2022-12-28T11:25:22.036Z,99855.06
2022-12-28T11:27:52.148Z,99837.44
2022-12-28T11:30:20.554Z,99846.41
2022-12-28T11:32:57.933Z,99851.47
2022-12-28T11:35:38.198Z,99857.91
2022-12-28T11:38:31.664Z,99845.50
2022-12-28T11:41:07.811Z,99837.16
2022-12-28T11:43:51.622Z,99841.50
2022-12-28T13:08:27.096Z,99851.81
2022-12-28T13:10:56.013Z,99849.75
2022-12-28T13:54:30.991Z,99833.63
2022-12-28T13:57:14.722Z,99829.91
2022-12-28T13:59:50.596Z,99841.19
2022-12-28T14:02:22.783Z,99839.22
2022-12-28T14:05:08.478Z,99836.34
2022-12-28T14:07:37.258Z,99829.16
2022-12-28T14:10:05.160Z,99828.00
2022-12-28T14:12:34.456Z,99817.09
2022-12-28T14:15:02.222Z,99819.78
2022-12-28T14:17:33.092Z,99831.22
2022-12-28T14:20:00.199Z,99821.63
2022-12-28T14:22:39.995Z,99820.78
2022-12-28T14:25:44.303Z,99837.44
2022-12-28T14:28:44.126Z,99819.50
2022-12-28T14:31:27.536Z,99825.53
2022-12-28T14:34:03.593Z,99825.38
2022-12-28T14:36:50.826Z,99817.50
2022-12-28T14:39:36.829Z,99814.81
2022-12-28T14:42:19.833Z,99811.66
2022-12-28T14:44:54.449Z,99821.53
2022-12-28T14:47:56.663Z,99809.78
2022-12-28T14:50:31.481Z,99808.09
2022-12-28T14:53:13.689Z,99814.47
2022-12-28T14:56:07.378Z,99809.25
2022-12-28T14:58:55.657Z,99804.56
2022-12-28T15:01:41.947Z,99799.53
2022-12-28T15:04:47.175Z,99797.06
2022-12-28T15:07:13.832Z,99808.78
2022-12-28T15:09:40.480Z,99797.91
2022-12-28T15:12:21.983Z,99799.75
2022-12-28T15:14:49.896Z,99792.38
2022-12-28T15:20:02.914Z,99777.44
2022-12-28T15:22:29.745Z,99779.09
2022-12-28T15:24:56.372Z,99781.31
2022-12-28T15:30:16.690Z,99762.66
2022-12-28T15:32:49.577Z,99764.00
2022-12-28T15:35:20.668Z,99767.38
2022-12-28T15:37:50.215Z,99760.47
2022-12-28T15:40:17.153Z,99758.16
2022-12-28T15:42:48.115Z,99766.03
2022-12-28T15:45:16.837Z,99769.41
2022-12-28T15:47:50.264Z,99760.53
2022-12-28T15:50:17.140Z,99765.19
2022-12-28T15:52:44.086Z,99757.16
2022-12-28T15:55:10.807Z,99762.50
2022-12-28T15:57:40.554Z,99752.59
2022-12-28T16:00:08.934Z,99757.16
2022-12-28T16:02:40.288Z,99750.88
2022-12-28T16:05:10.785Z,99749.03
2022-12-28T16:07:37.650Z,99743.66
2022-12-28T16:10:05.055Z,99744.53
2022-12-28T16:12:31.766Z,99746.34
2022-12-28T16:14:58.497Z,99740.81
2022-12-28T16:17:25.167Z,99742.81
2022-12-28T16:19:51.839Z,99732.91
2022-12-28T16:22:18.606Z,99731.94
2022-12-28T16:24:45.317Z,99715.47
2022-12-28T16:27:14.633Z,99720.66
2022-12-28T16:29:41.684Z,99716.81
2022-12-28T16:32:08.495Z,99717.97
2022-12-28T16:34:35.961Z,99711.78
2022-12-28T16:37:02.962Z,99702.34
2022-12-28T16:39:30.833Z,99714.59
2022-12-28T16:41:58.865Z,99712.94
2022-12-28T16:44:27.840Z,99710.25
2022-12-28T16:46:58.504Z,99709.41
2022-12-28T16:49:27.259Z,99707.91
2022-12-28T16:51:54.066Z,99696.28
2022-12-28T16:54:37.594Z,99706.72
2022-12-28T16:57:15.761Z,99699.84
2022-12-28T16:59:42.552Z,99684.88
2022-12-28T17:02:12.966Z,99703.22
2022-12-28T17:04:39.773Z,99691.09
2022-12-28T17:07:06.427Z,99689.25
2022-12-28T17:09:36.098Z,99690.91
2022-12-28T17:12:02.785Z,99685.56
2022-12-28T17:14:37.777Z,99684.56
2022-12-28T17:17:07.360Z,99686.09
2022-12-28T17:19:37.330Z,99684.72
2022-12-28T17:22:05.573Z,99681.81
2022-12-28T17:24:34.186Z,99697.09
2022-12-28T17:27:07.264Z,99684.97
2022-12-28T17:29:39.150Z,99688.69
2022-12-28T17:32:10.002Z,99677.41
2022-12-28T17:34:39.893Z,99667.16
2022-12-28T17:37:06.652Z,99684.78
2022-12-28T17:39:40.339Z,99674.50
2022-12-28T17:42:09.187Z,99680.91
2022-12-28T17:44:36.018Z,99676.38
2022-12-28T17:47:02.666Z,99680.50
2022-12-28T17:49:31.376Z,99662.19
2022-12-28T17:51:58.070Z,99667.06
2022-12-28T17:54:33.531Z,99665.69
2022-12-28T17:57:00.559Z,99663.97
2022-12-28T17:59:27.300Z,99658.09
2022-12-28T18:01:54.132Z,99655.28
2022-12-28T19:07:10.931Z,99559.63
2022-12-28T19:17:40.642Z,99549.97
2022-12-28T19:28:11.234Z,99541.25
2022-12-28T19:30:38.105Z,99541.44
2022-12-28T19:43:55.985Z,99534.03
2022-12-28T19:54:39.197Z,99521.44
2022-12-28T19:57:06.370Z,99509.16
2022-12-28T21:05:08.375Z,99429.72
2022-12-28T21:07:35.367Z,99418.00
2022-12-28T21:10:02.764Z,99419.00
2022-12-28T21:15:10.882Z,99420.84
2022-12-28T21:17:37.888Z,99420.00
2022-12-28T21:20:05.261Z,99405.22
2022-12-28T21:22:34.725Z,99401.41
2022-12-28T21:47:08.342Z,99346.59
2022-12-28T21:49:35.039Z,99351.94
2022-12-28T21:52:03.330Z,99347.75
2022-12-28T21:54:30.182Z,99337.03
2022-12-28T21:56:57.485Z,99338.72
2022-12-28T21:59:27.471Z,99345.91
2022-12-28T22:02:13.290Z,99340.56
2022-12-28T22:05:02.607Z,99324.81
2022-12-28T22:07:31.108Z,99328.16
2022-12-28T22:10:19.663Z,99315.44
2022-12-28T22:12:50.071Z,99315.25
2022-12-28T22:15:45.279Z,99316.13
2022-12-28T22:19:00.446Z,99319.66
2022-12-28T22:21:13.566Z,99309.91
2022-12-28T22:23:45.325Z,99304.72
2022-12-28T22:26:12.175Z,99287.44
2022-12-28T22:28:41.356Z,99287.78
2022-12-28T22:31:08.826Z,99290.16
2022-12-28T22:33:35.960Z,99289.34
2022-12-28T22:36:16.917Z,99295.34
2022-12-28T22:38:44.126Z,99281.09
2022-12-28T22:41:13.882Z,99275.94
2022-12-28T22:43:40.776Z,99279.44
2022-12-28T22:46:12.411Z,99276.25
2022-12-28T22:48:46.708Z,99268.38
2022-12-28T22:51:16.565Z,99266.19
2022-12-28T22:53:47.926Z,99248.25
2022-12-28T22:56:20.832Z,99248.09
2022-12-28T22:58:51.101Z,99251.09
2022-12-28T23:01:20.861Z,99258.66
2022-12-28T23:03:48.845Z,99247.41
2022-12-28T23:06:22.017Z,99245.94
2022-12-28T23:08:49.001Z,99237.38
2022-12-28T23:11:36.765Z,99236.53
2022-12-28T23:14:41.236Z,99240.56
2022-12-28T23:17:17.192Z,99244.09
2022-12-28T23:20:06.982Z,99239.56
2022-12-28T23:23:00.134Z,99229.16
2022-12-28T23:25:48.060Z,99222.16
2022-12-28T23:28:17.438Z,99218.59
2022-12-28T23:30:51.080Z,99220.97
2022-12-28T23:33:21.786Z,99222.66
2022-12-28T23:35:48.668Z,99221.81
2022-12-28T23:38:18.515Z,99225.50
2022-12-28T23:40:45.325Z,99216.94
2022-12-28T23:43:12.001Z,99216.13
2022-12-28T23:45:38.785Z,99217.81
2022-12-28T23:48:05.986Z,99213.97
2022-12-28T23:50:35.225Z,99206.91
2022-12-28T23:53:01.878Z,99210.25
2022-12-28T23:55:31.526Z,99202.22
2022-12-28T23:57:58.163Z,99202.41
